Time;durP1;ratioP1;P1;durP2;ratioP2;P2;SDS_P1;SDS_P2;PMS_P1;PMS_P2;Temp;Humidity;BMP_temperature;BMP_pressure;BME280_temperature;BME280_humidity;BME280_pressure;Samples;Min_cycle;Max_cycle;Signal;HPM_P1;HPM_P2
2021/05/04 00:03:43;;;;;;;3.05;1.40;;;11.80;47.30;;;;;;10166291;27;20035;-55
2021/05/04 00:08:33;;;;;;;3.75;1.80;;;11.70;47.60;;;;;;10166785;27;20497;-56
2021/05/04 00:13:24;;;;;;;4.55;2.10;;;11.60;47.90;;;;;;10173737;27;20039;-55
2021/05/04 00:18:15;;;;;;;1.92;1.48;;;11.60;48.00;;;;;;10167657;27;20032;-55
2021/05/04 00:23:06;;;;;;;4.07;1.90;;;11.50;48.50;;;;;;10169537;27;20927;-58
2021/05/04 00:27:57;;;;;;;4.07;2.00;;;11.40;48.80;;;;;;10169201;27;20032;-56
2021/05/04 00:32:48;;;;;;;2.72;1.83;;;11.40;48.70;;;;;;10167620;27;20050;-55
2021/05/04 00:37:38;;;;;;;3.00;1.83;;;11.30;49.70;;;;;;10168108;27;20031;-55
2021/05/04 00:42:29;;;;;;;2.67;1.98;;;11.30;49.20;;;;;;10170654;27;20611;-57
2021/05/04 00:47:20;;;;;;;3.53;1.52;;;11.30;49.20;;;;;;10184061;27;20917;-58
2021/05/04 00:52:11;;;;;;;2.97;1.60;;;11.20;49.20;;;;;;10164728;27;20030;-56
2021/05/04 00:57:02;;;;;;;2.97;1.67;;;11.30;49.60;;;;;;10178255;27;20020;-57
2021/05/04 01:01:53;;;;;;;2.03;1.55;;;11.20;49.70;;;;;;10168645;27;20076;-57
2021/05/04 01:06:44;;;;;;;4.03;1.80;;;11.20;49.70;;;;;;10166463;27;20041;-58
2021/05/04 01:11:34;;;;;;;2.92;2.08;;;11.20;49.80;;;;;;10172592;27;20042;-55
2021/05/04 01:16:25;;;;;;;3.05;1.92;;;11.10;50.00;;;;;;10176145;27;20031;-57
2021/05/04 01:21:16;;;;;;;3.83;1.80;;;11.00;50.20;;;;;;10170092;27;20043;-56
2021/05/04 01:26:07;;;;;;;2.33;1.60;;;11.10;50.30;;;;;;10165179;27;20167;-57
2021/05/04 01:30:58;;;;;;;2.30;1.77;;;11.00;50.40;;;;;;10181372;27;20028;-58
2021/05/04 01:35:48;;;;;;;2.63;1.73;;;11.10;50.30;;;;;;10179096;27;20093;-57
2021/05/04 01:40:39;;;;;;;1.85;1.40;;;11.10;50.40;;;;;;10181186;27;20039;-57
2021/05/04 01:45:30;;;;;;;3.53;2.75;;;10.90;50.50;;;;;;10185984;28;20062;-56
2021/05/04 01:50:21;;;;;;;2.58;1.65;;;11.00;50.60;;;;;;10173333;28;20073;-55
2021/05/04 01:55:12;;;;;;;2.28;1.80;;;10.90;50.80;;;;;;10175095;28;20035;-55
2021/05/04 02:00:08;;;;;;;1.58;1.25;;;10.90;50.60;;;;;;10172418;27;20055;-58
2021/05/04 02:04:59;;;;;;;1.77;1.60;;;11.10;50.70;;;;;;10189949;27;20066;-55
2021/05/04 02:09:50;;;;;;;3.28;1.77;;;11.00;50.80;;;;;;10194395;27;20952;-55
2021/05/04 02:14:41;;;;;;;2.83;1.70;;;11.00;50.50;;;;;;10180168;27;20044;-58
2021/05/04 02:19:32;;;;;;;2.63;1.45;;;11.10;50.40;;;;;;10183847;27;20043;-55
2021/05/04 02:24:23;;;;;;;2.83;1.75;;;11.10;50.70;;;;;;10171779;27;20058;-57
2021/05/04 02:29:14;;;;;;;2.47;1.67;;;11.00;50.70;;;;;;10177398;27;20248;-58
2021/05/04 02:34:05;;;;;;;1.90;1.38;;;11.00;50.80;;;;;;10184345;27;20484;-58
2021/05/04 02:38:55;;;;;;;2.25;1.58;;;11.00;50.80;;;;;;10181405;27;20676;-57
2021/05/04 02:43:46;;;;;;;3.05;1.80;;;10.90;51.00;;;;;;10169559;27;20096;-52
2021/05/04 02:48:42;;;;;;;2.42;1.65;;;10.90;51.10;;;;;;10175030;27;20059;-56
2021/05/04 02:53:33;;;;;;;2.40;1.35;;;10.90;51.30;;;;;;10172602;27;20028;-58
2021/05/04 02:58:26;;;;;;;3.15;1.63;;;10.90;51.70;;;;;;10170706;27;20031;-58
2021/05/04 03:03:16;;;;;;;2.03;1.42;;;10.90;51.40;;;;;;10169362;27;20508;-56
2021/05/04 03:08:07;;;;;;;2.58;2.03;;;10.90;51.40;;;;;;10167545;27;20085;-58
2021/05/04 03:12:58;;;;;;;3.35;1.67;;;10.80;51.60;;;;;;10184887;27;20519;-56
2021/05/04 03:17:49;;;;;;;2.22;1.65;;;10.80;51.80;;;;;;10169154;27;20093;-56
2021/05/04 03:22:40;;;;;;;2.13;1.58;;;10.80;51.80;;;;;;10180901;27;20031;-54
2021/05/04 03:27:30;;;;;;;4.57;1.67;;;10.80;51.90;;;;;;10183145;27;20057;-57
2021/05/04 03:32:21;;;;;;;1.63;1.35;;;10.80;51.90;;;;;;10167795;27;20584;-56
2021/05/04 03:37:12;;;;;;;2.80;1.63;;;10.90;51.80;;;;;;10154918;28;20052;-57
2021/05/04 03:42:03;;;;;;;2.47;1.70;;;10.90;52.00;;;;;;10176917;27;20566;-57
2021/05/04 03:46:54;;;;;;;2.40;1.83;;;11.00;51.80;;;;;;10185746;27;20109;-57
2021/05/04 03:51:44;;;;;;;3.33;1.98;;;11.10;51.80;;;;;;10180051;27;20032;-57
2021/05/04 03:56:35;;;;;;;2.53;1.40;;;11.20;51.70;;;;;;10174425;27;20149;-55
2021/05/04 04:01:26;;;;;;;1.85;1.50;;;11.30;51.50;;;;;;10183542;27;20046;-57
2021/05/04 04:06:17;;;;;;;2.67;1.27;;;11.30;51.40;;;;;;10183682;27;20035;-58
2021/05/04 04:11:08;;;;;;;2.20;1.40;;;11.50;51.30;;;;;;10178341;27;20568;-57
2021/05/04 04:16:00;;;;;;;2.22;1.45;;;11.50;51.20;;;;;;10177761;27;20104;-57
2021/05/04 04:20:51;;;;;;;1.48;1.25;;;11.60;51.10;;;;;;10169940;27;20242;-57
2021/05/04 04:25:41;;;;;;;2.70;1.55;;;11.70;50.90;;;;;;10182891;27;20070;-57
2021/05/04 04:30:32;;;;;;;1.35;1.15;;;11.80;50.80;;;;;;10174708;27;20031;-56
2021/05/04 04:35:23;;;;;;;1.80;1.23;;;11.80;50.60;;;;;;10172978;27;20493;-55
2021/05/04 04:40:14;;;;;;;2.47;1.30;;;11.90;50.40;;;;;;10169709;27;20187;-57
2021/05/04 04:45:05;;;;;;;2.33;1.60;;;12.00;50.10;;;;;;10173318;27;20296;-57
2021/05/04 04:49:56;;;;;;;1.33;1.20;;;12.10;50.00;;;;;;10172844;27;20039;-54
2021/05/04 04:54:47;;;;;;;2.40;1.40;;;12.20;49.70;;;;;;10174211;27;20773;-56
2021/05/04 04:59:38;;;;;;;2.50;1.40;;;12.30;49.40;;;;;;10180778;27;20126;-56
2021/05/04 05:04:28;;;;;;;1.30;1.17;;;12.40;49.20;;;;;;10176963;27;20135;-59
2021/05/04 05:09:20;;;;;;;2.20;1.73;;;12.50;49.00;;;;;;10179645;27;20101;-56
2021/05/04 05:14:11;;;;;;;1.95;1.42;;;12.60;48.80;;;;;;10183626;27;20057;-56
2021/05/04 05:19:02;;;;;;;3.55;1.90;;;12.70;48.60;;;;;;10167216;27;20512;-57
2021/05/04 05:23:53;;;;;;;3.95;2.33;;;12.80;48.40;;;;;;10163242;27;20149;-56
2021/05/04 05:28:45;;;;;;;4.65;3.10;;;12.80;48.80;;;;;;10164957;27;20031;-59
2021/05/04 05:33:36;;;;;;;4.07;2.53;;;12.90;48.10;;;;;;10163738;27;20368;-57
2021/05/04 05:38:27;;;;;;;4.40;1.77;;;12.90;47.90;;;;;;10175479;27;20036;-56
2021/05/04 05:43:17;;;;;;;2.58;1.83;;;13.00;47.90;;;;;;10173750;27;20535;-57
2021/05/04 05:48:08;;;;;;;2.03;1.48;;;13.00;47.70;;;;;;10163442;28;20471;-59
2021/05/04 05:52:59;;;;;;;4.90;1.63;;;13.10;47.60;;;;;;10172294;28;20024;-57
2021/05/04 05:57:50;;;;;;;1.27;1.13;;;13.20;47.40;;;;;;10165603;28;20035;-58
2021/05/04 06:02:41;;;;;;;4.55;2.13;;;13.30;47.40;;;;;;10172608;28;20063;-56
2021/05/04 06:07:31;;;;;;;3.03;1.25;;;13.20;47.10;;;;;;10169296;28;20044;-56
2021/05/04 06:12:22;;;;;;;3.50;1.70;;;13.30;47.00;;;;;;10164457;28;20118;-55
2021/05/04 06:17:13;;;;;;;1.50;1.20;;;13.40;46.90;;;;;;10174601;28;20481;-61
2021/05/04 06:22:04;;;;;;;2.30;1.50;;;13.40;46.70;;;;;;10169536;28;20394;-59
2021/05/04 06:26:55;;;;;;;2.05;1.42;;;13.50;46.60;;;;;;10171265;28;20035;-57
2021/05/04 06:31:50;;;;;;;1.75;1.15;;;13.60;46.50;;;;;;10188110;28;20054;-58
2021/05/04 06:36:41;;;;;;;2.05;1.27;;;13.60;46.40;;;;;;10191442;28;20535;-58
2021/05/04 06:41:36;;;;;;;2.90;1.58;;;13.70;46.30;;;;;;10174779;28;20061;-58
2021/05/04 06:46:29;;;;;;;2.88;1.20;;;13.60;46.20;;;;;;10192301;27;20059;-56
2021/05/04 06:51:20;;;;;;;2.65;1.52;;;13.60;46.20;;;;;;10202954;27;20065;-57
2021/05/04 06:56:10;;;;;;;2.13;1.65;;;13.70;46.20;;;;;;10195991;27;20038;-58
2021/05/04 07:01:01;;;;;;;1.80;1.20;;;13.70;46.20;;;;;;10199017;27;20055;-56
2021/05/04 07:05:52;;;;;;;3.25;1.77;;;13.70;46.60;;;;;;10197004;27;20035;-60
2021/05/04 07:10:42;;;;;;;3.53;1.70;;;13.80;45.90;;;;;;10197408;27;20034;-60
2021/05/04 07:15:33;;;;;;;6.03;1.48;;;13.80;45.90;;;;;;10201441;27;20406;-57
2021/05/04 07:20:24;;;;;;;2.85;1.40;;;13.80;45.80;;;;;;10200050;27;20155;-58
2021/05/04 07:25:15;;;;;;;2.10;1.40;;;13.90;45.80;;;;;;10185826;27;20032;-63
2021/05/04 07:30:06;;;;;;;2.58;1.33;;;13.90;45.60;;;;;;10173064;27;20662;-61
2021/05/04 07:34:57;;;;;;;3.58;1.20;;;14.00;45.40;;;;;;10194267;27;20442;-60
2021/05/04 07:39:48;;;;;;;4.78;1.60;;;14.10;45.40;;;;;;10173883;27;20673;-59
2021/05/04 07:44:39;;;;;;;3.33;1.30;;;14.10;45.20;;;;;;10180013;27;20055;-60
2021/05/04 07:50:03;;;;;;;1.75;1.40;;;14.10;45.30;;;;;;10163266;27;20041;-61
2021/05/04 07:54:46;;;;;;;2.92;1.80;;;14.10;45.10;;;;;;10164407;27;20568;-58
2021/05/04 07:59:37;;;;;;;2.28;1.60;;;14.30;45.00;;;;;;10165937;28;20940;-60
2021/05/04 08:04:29;;;;;;;4.25;1.50;;;14.30;44.80;;;;;;10172015;27;20551;-60
2021/05/04 08:09:20;;;;;;;2.75;1.92;;;14.30;44.90;;;;;;10171054;27;20464;-60
2021/05/04 08:14:10;;;;;;;3.95;1.52;;;14.40;44.80;;;;;;10161609;27;20028;-59
2021/05/04 08:19:01;;;;;;;1.77;1.48;;;14.50;44.70;;;;;;10169951;27;20270;-59
2021/05/04 08:23:52;;;;;;;2.50;1.73;;;14.60;44.70;;;;;;10166082;27;20322;-60
2021/05/04 08:28:45;;;;;;;1.58;1.20;;;14.60;44.70;;;;;;10167848;27;21056;-60
2021/05/04 08:33:36;;;;;;;1.70;1.58;;;14.70;44.50;;;;;;10165451;27;20040;-60
2021/05/04 08:38:26;;;;;;;2.90;1.58;;;14.80;44.60;;;;;;10169372;27;20313;-61
2021/05/04 08:43:25;;;;;;;2.55;2.00;;;15.00;44.30;;;;;;10157801;27;20122;-59
2021/05/04 08:48:16;;;;;;;2.30;1.58;;;15.10;44.20;;;;;;10171668;27;20057;-59
2021/05/04 08:53:07;;;;;;;2.30;1.20;;;15.20;44.10;;;;;;10122217;27;20036;-61
2021/05/04 08:57:57;;;;;;;2.58;1.48;;;15.30;44.20;;;;;;10161205;27;20219;-57
2021/05/04 09:03:08;;;;;;;2.63;1.45;;;15.20;44.20;;;;;;10153320;27;20274;-56
2021/05/04 09:08:00;;;;;;;2.80;1.42;;;15.30;44.00;;;;;;10147717;27;20032;-57
2021/05/04 09:17:48;;;;;;;2.75;1.02;;;15.40;43.90;;;;;;10155802;27;20072;-52
2021/05/04 09:22:44;;;;;;;1.75;1.00;;;15.50;43.60;;;;;;10142758;27;20050;-54
2021/05/04 09:27:35;;;;;;;1.45;0.90;;;15.60;42.70;;;;;;10154504;27;20048;-57
2021/05/04 09:32:28;;;;;;;2.58;1.13;;;15.80;40.50;;;;;;10149664;27;21488;-61
2021/05/04 09:37:28;;;;;;;3.53;1.80;;;16.10;40.30;;;;;;10151634;27;20882;-64
2021/05/04 09:42:19;;;;;;;2.05;1.10;;;16.30;40.00;;;;;;10145892;27;20086;-57
2021/05/04 09:47:13;;;;;;;1.35;1.02;;;16.40;38.50;;;;;;10155661;28;20402;-60
2021/05/04 09:52:47;;;;;;;1.90;1.00;;;16.50;37.50;;;;;;10146825;28;20111;-60
2021/05/04 09:57:42;;;;;;;1.50;1.08;;;16.50;36.80;;;;;;10133567;28;20254;-54
2021/05/04 10:02:33;;;;;;;;;;;16.40;36.10;;;;;;10163544;28;20038;-56
2021/05/04 10:07:24;;;;;;;1.88;0.80;;;16.50;31.40;;;;;;10146347;28;20655;-57
2021/05/04 10:12:17;;;;;;;2.10;1.45;;;16.60;30.30;;;;;;10146920;28;20024;-58
2021/05/04 10:17:09;;;;;;;3.42;1.02;;;16.60;31.00;;;;;;10138659;28;20167;-58
2021/05/04 10:21:59;;;;;;;3.05;0.60;;;16.70;29.90;;;;;;10153910;27;20032;-61
2021/05/04 10:26:51;;;;;;;1.38;1.27;;;16.70;29.40;;;;;;10158552;27;20512;-57
2021/05/04 10:31:47;;;;;;;1.83;1.10;;;16.70;29.70;;;;;;10150186;27;20027;-57
2021/05/04 10:36:38;;;;;;;2.63;0.98;;;16.80;29.20;;;;;;10141460;27;20035;-59
2021/05/04 10:41:29;;;;;;;5.45;1.95;;;16.80;29.40;;;;;;10155387;27;20038;-61
2021/05/04 10:46:33;;;;;;;1.83;1.13;;;16.50;29.70;;;;;;10153908;27;20581;-63
2021/05/04 10:51:51;;;;;;;2.28;1.00;;;16.40;30.30;;;;;;10172736;27;20035;-59
2021/05/04 10:56:43;;;;;;;2.33;0.90;;;16.20;31.40;;;;;;10158837;27;20675;-56
2021/05/04 11:01:37;;;;;;;2.60;0.93;;;16.00;32.50;;;;;;10164190;27;20269;-57
2021/05/04 11:06:29;;;;;;;2.72;1.00;;;15.80;33.60;;;;;;10176124;27;20031;-61
2021/05/04 11:11:38;;;;;;;5.25;1.08;;;15.70;34.90;;;;;;10170826;27;20619;-59
2021/05/04 11:16:46;;;;;;;3.10;1.13;;;15.70;35.80;;;;;;10157423;27;20039;-59
2021/05/04 11:21:37;;;;;;;4.93;0.93;;;15.60;36.90;;;;;;10151394;27;20051;-52
2021/05/04 11:26:48;;;;;;;2.35;1.80;;;15.50;37.90;;;;;;10167310;27;20030;-60
2021/05/04 11:31:41;;;;;;;1.13;0.90;;;15.30;38.80;;;;;;10151393;27;20040;-59
2021/05/04 11:36:41;;;;;;;2.35;0.90;;;15.10;39.80;;;;;;10150791;27;20053;-61
2021/05/04 11:41:32;;;;;;;2.35;1.15;;;15.10;40.70;;;;;;10149733;27;20044;-61
2021/05/04 11:46:26;;;;;;;1.13;1.00;;;15.10;40.40;;;;;;10136952;27;20074;-58
2021/05/04 11:51:16;;;;;;;1.63;1.05;;;15.20;40.80;;;;;;10115198;28;20378;-59
2021/05/04 11:56:09;;;;;;;1.67;1.23;;;15.20;41.20;;;;;;10114738;28;20027;-57
2021/05/04 12:01:06;;;;;;;0.90;0.90;;;15.30;42.20;;;;;;10115166;28;20051;-58
2021/05/04 12:05:58;;;;;;;0.98;0.88;;;15.10;42.20;;;;;;10099354;28;20289;-61
2021/05/04 12:10:49;;;;;;;1.30;1.05;;;15.40;42.50;;;;;;10121093;28;20423;-61
2021/05/04 12:15:47;;;;;;;2.75;0.90;;;15.50;42.50;;;;;;10113811;28;20031;-57
2021/05/04 12:20:55;;;;;;;1.08;0.90;;;15.60;42.90;;;;;;10121097;28;20836;-59
2021/05/04 12:25:53;;;;;;;1.13;0.82;;;15.70;43.20;;;;;;10115683;28;20521;-60
2021/05/04 12:30:45;;;;;;;1.95;1.50;;;15.80;43.60;;;;;;10101433;28;20036;-61
2021/05/04 12:35:43;;;;;;;0.70;0.70;;;15.60;44.20;;;;;;10093651;28;20525;-59
2021/05/04 12:40:36;;;;;;;2.95;1.00;;;15.50;44.80;;;;;;10088677;28;20111;-58
2021/05/04 12:45:26;;;;;;;1.85;1.02;;;15.10;45.50;;;;;;10113701;28;20441;-58
2021/05/04 12:50:28;;;;;;;1.92;1.13;;;15.00;46.10;;;;;;10149096;27;20038;-59
2021/05/04 12:55:19;;;;;;;5.80;1.15;;;14.80;46.50;;;;;;10141049;27;20074;-60
2021/05/04 13:00:18;;;;;;;2.60;1.40;;;14.80;46.80;;;;;;10151737;27;20040;-58
2021/05/04 13:05:27;;;;;;;1.67;1.00;;;14.70;47.30;;;;;;10116857;27;20255;-64
2021/05/04 13:30:35;;;;;;;7.18;3.20;;;14.30;50.40;;;;;;10150571;27;20051;-60
2021/05/04 13:35:29;;;;;;;1.20;1.00;;;14.40;50.30;;;;;;10137103;27;20505;-60
2021/05/04 13:50:13;;;;;;;1.88;1.40;;;14.60;50.60;;;;;;10162133;28;20093;-61
2021/05/04 13:55:06;;;;;;;1.52;1.05;;;14.60;50.70;;;;;;10162328;27;20370;-61
2021/05/04 13:59:58;;;;;;;1.77;1.20;;;14.50;51.00;;;;;;10163260;27;20263;-59
2021/05/04 14:15:25;;;;;;;2.28;1.13;;;14.50;51.50;;;;;;10164927;27;20050;-60
2021/05/04 14:26:09;;;;;;;1.60;1.17;;;14.40;52.40;;;;;;10161675;27;20101;-61
2021/05/04 14:30:33;;;;;;;2.15;1.42;;;14.30;54.00;;;;;;10158611;27;20134;-60
2021/05/04 15:00:42;;;;;;;2.30;1.90;;;14.00;55.20;;;;;;10170615;27;20051;-62
2021/05/04 15:05:33;;;;;;;1.58;1.42;;;13.90;55.50;;;;;;10148315;28;21400;-69
2021/05/04 15:10:24;;;;;;;1.77;1.23;;;14.00;56.40;;;;;;10149764;27;20028;-68
2021/05/04 15:25:20;;;;;;;2.10;1.67;;;14.10;57.60;;;;;;10172193;27;20081;-61
2021/05/04 15:30:11;;;;;;;1.67;1.27;;;14.10;57.30;;;;;;10168097;27;20232;-61
2021/05/04 15:35:02;;;;;;;2.28;1.48;;;14.10;57.90;;;;;;10161031;27;20431;-61
2021/05/04 15:39:57;;;;;;;2.13;1.33;;;14.20;57.90;;;;;;10154974;27;20126;-60
2021/05/04 15:44:54;;;;;;;2.13;1.50;;;14.30;58.20;;;;;;10154817;27;20051;-60
2021/05/04 15:49:57;;;;;;;1.88;1.25;;;14.50;58.10;;;;;;10167407;27;20051;-61
2021/05/04 16:10:18;;;;;;;2.33;1.30;;;15.10;57.10;;;;;;10168459;27;20087;-62
2021/05/04 16:15:09;;;;;;;2.28;1.27;;;15.40;56.80;;;;;;10171644;27;20132;-59
2021/05/04 16:20:05;;;;;;;1.25;1.15;;;15.40;57.00;;;;;;10164473;27;20119;-62
2021/05/04 16:25:06;;;;;;;2.20;1.02;;;15.20;57.60;;;;;;10159011;27;20802;-62
2021/05/04 16:30:30;;;;;;;1.48;1.25;;;15.00;58.20;;;;;;10163651;27;20325;-60
2021/05/04 16:35:14;;;;;;;1.75;1.55;;;14.50;59.30;;;;;;10159452;27;20047;-61
2021/05/04 16:40:09;;;;;;;2.10;0.98;;;14.40;59.60;;;;;;10174540;27;20501;-60
2021/05/04 16:45:00;;;;;;;1.80;1.30;;;14.60;59.20;;;;;;10169764;27;20112;-63
2021/05/04 16:49:51;;;;;;;2.92;1.40;;;14.30;59.70;;;;;;10142795;27;20579;-61
2021/05/04 16:54:43;;;;;;;1.75;0.95;;;14.30;60.00;;;;;;10148956;27;20123;-61
2021/05/04 16:59:36;;;;;;;1.70;1.30;;;14.30;60.30;;;;;;10176066;27;20128;-60
2021/05/04 17:04:28;;;;;;;2.40;1.48;;;14.30;60.60;;;;;;10154732;27;20039;-63
2021/05/04 17:14:27;;;;;;;1.70;1.08;;;14.20;61.50;;;;;;10175618;27;20041;-65
2021/05/04 17:19:18;;;;;;;1.80;1.10;;;13.90;62.00;;;;;;10170336;27;20691;-62
2021/05/04 17:24:10;;;;;;;1.58;1.00;;;13.80;62.00;;;;;;10177694;27;20042;-62
2021/05/04 17:29:01;;;;;;;2.53;1.60;;;13.80;62.30;;;;;;10177743;27;20408;-62
2021/05/04 17:33:52;;;;;;;2.22;1.42;;;13.70;62.30;;;;;;10174686;27;20237;-61
2021/05/04 17:38:44;;;;;;;1.92;1.52;;;13.70;62.70;;;;;;10181184;27;20861;-60
2021/05/04 17:43:35;;;;;;;4.75;3.05;;;13.40;64.10;;;;;;10179314;27;20039;-63
2021/05/04 17:48:26;;;;;;;2.40;1.50;;;13.20;65.10;;;;;;10177398;27;20069;-60
2021/05/04 17:53:17;;;;;;;1.58;1.38;;;13.00;66.40;;;;;;10177267;28;20059;-62
2021/05/04 17:58:08;;;;;;;1.73;1.10;;;12.90;66.70;;;;;;10171381;28;20026;-63
2021/05/04 18:02:59;;;;;;;1.80;1.10;;;12.80;68.00;;;;;;10171108;28;20063;-60
2021/05/04 18:07:50;;;;;;;1.27;1.00;;;12.70;68.90;;;;;;10174614;28;20058;-62
2021/05/04 18:22:45;;;;;;;2.03;0.85;;;12.30;70.40;;;;;;10175070;28;20050;-63
2021/05/04 18:27:36;;;;;;;1.83;1.20;;;12.20;70.50;;;;;;10175065;28;20051;-61
2021/05/04 18:32:27;;;;;;;2.15;0.63;;;12.20;70.80;;;;;;10166371;28;20031;-62
2021/05/04 20:09:34;;;;;;;0.25;0.22;;;11.90;73.10;;;;;;10183056;27;20167;-62
2021/05/04 20:14:25;;;;;;;0.68;0.38;;;11.90;72.60;;;;;;10189298;27;20063;-60
2021/05/04 20:19:16;;;;;;;0.68;0.28;;;11.90;72.70;;;;;;10179434;27;20571;-62
2021/05/04 20:24:09;;;;;;;0.30;0.30;;;11.70;73.00;;;;;;10183432;27;20569;-60
2021/05/04 20:29:00;;;;;;;1.30;0.50;;;11.60;73.00;;;;;;10181106;27;20034;-61
2021/05/04 20:33:50;;;;;;;0.30;0.30;;;11.70;73.00;;;;;;10162609;27;20034;-62
2021/05/04 20:38:42;;;;;;;0.57;0.20;;;11.60;72.80;;;;;;10183810;27;20030;-61
2021/05/04 20:43:35;;;;;;;0.68;0.32;;;11.60;72.80;;;;;;10180451;27;20226;-61
2021/05/04 20:48:26;;;;;;;0.73;0.28;;;11.60;72.80;;;;;;10090371;27;20131;-59
2021/05/04 20:53:17;;;;;;;0.82;0.47;;;11.50;73.00;;;;;;10108376;28;20410;-62
2021/05/04 20:58:08;;;;;;;1.42;0.65;;;11.60;72.80;;;;;;10111398;28;20651;-62
2021/05/04 21:03:00;;;;;;;0.77;0.77;;;11.60;73.00;;;;;;10093163;28;20040;-59
2021/05/04 21:07:52;;;;;;;0.45;0.30;;;11.70;72.90;;;;;;10110981;28;20034;-60
2021/05/04 21:12:48;;;;;;;0.65;0.60;;;11.60;72.90;;;;;;10110636;28;20047;-60
2021/05/04 21:17:42;;;;;;;0.57;0.43;;;11.60;73.30;;;;;;10115104;28;20028;-61
2021/05/04 21:27:32;;;;;;;0.85;0.50;;;11.70;73.60;;;;;;10112838;28;20040;-60
2021/05/04 21:32:23;;;;;;;0.85;0.45;;;11.70;73.60;;;;;;10101420;28;20032;-60
2021/05/04 21:37:14;;;;;;;1.63;0.70;;;11.80;73.50;;;;;;10090543;28;20056;-61
2021/05/04 21:42:05;;;;;;;0.70;0.57;;;11.90;73.60;;;;;;10107460;28;20067;-60
2021/05/04 21:46:56;;;;;;;0.85;0.68;;;11.70;73.70;;;;;;10137635;28;20244;-61
2021/05/04 21:51:46;;;;;;;0.70;0.32;;;11.60;74.00;;;;;;10123512;28;20072;-61
2021/05/04 21:56:37;;;;;;;1.48;0.77;;;11.60;74.20;;;;;;10151645;28;20108;-60
2021/05/04 22:01:32;;;;;;;3.05;0.88;;;11.50;74.50;;;;;;10140611;28;20651;-60
2021/05/04 22:06:23;;;;;;;2.03;1.03;;;11.50;74.70;;;;;;10150008;28;21267;-59
2021/05/04 22:11:14;;;;;;;1.23;0.47;;;11.40;75.00;;;;;;10148442;28;20034;-60
2021/05/04 22:36:28;;;;;;;0.52;0.30;;;11.20;76.40;;;;;;10162226;27;20406;-61
2021/05/04 22:41:35;;;;;;;0.52;0.30;;;10.90;76.30;;;;;;10154760;28;20496;-62
2021/05/04 23:17:09;;;;;;;0.68;0.35;;;10.30;75.80;;;;;;10144385;27;20172;-60
2021/05/04 23:22:00;;;;;;;1.48;0.38;;;10.40;76.50;;;;;;10154589;27;20044;-60
2021/05/04 23:26:51;;;;;;;0.32;0.20;;;10.40;75.50;;;;;;10166231;27;20036;-62
2021/05/04 23:31:42;;;;;;;0.40;0.40;;;10.40;75.70;;;;;;10162226;27;20039;-61
2021/05/04 23:36:33;;;;;;;0.43;0.30;;;10.30;75.90;;;;;;10156343;27;20027;-61
2021/05/04 23:41:25;;;;;;;2.28;0.60;;;10.30;76.00;;;;;;10169242;27;20100;-63
2021/05/04 23:46:16;;;;;;;0.88;0.40;;;10.30;75.70;;;;;;10158233;27;20132;-60
2021/05/04 23:51:08;;;;;;;1.23;0.95;;;10.30;75.80;;;;;;10134009;27;20390;-60
2021/05/04 23:55:59;;;;;;;1.35;0.43;;;10.30;75.70;;;;;;10148953;27;20044;-60
